Audrey — PD9331 — position and weather

sailwx.info

Track history (hours):
 
Tides and Currents Weather Stations Pressure Air Temp Water Temp Dewpoint Dewpoint Depression Visibility Wind Speed Wind Dir Waves Ship Positions

Audrey

Last reported at 2015-Sep-01 14:23 UTC. Time now 2015-Sep-02 04:24 UTC.
Position N 48°58' E 008°14'.

Length 85 m; draft 1.9 m.

Type: Other ship. MMSI: 244660106.

Date/timePositionNaut miles runAvg speedWind from/ knotsBaromVisibWave heightAir tempDewpointWater temp
2015-Sep-01 14:23N 48°58' E 008°14'3 3.8
2015-Sep-01 13:33N 48°60' E 008°17'4 4.0
2015-Sep-01 12:33N 49°04' E 008°19'4 3.9
2015-Sep-01 11:33N 49°07' E 008°22'4 3.8
2015-Sep-01 10:33N 49°11' E 008°23'4 3.8
2015-Sep-01 09:33N 49°15' E 008°24'4 4.2
2015-Sep-01 08:33N 49°17' E 008°29'3 3.3
2015-Sep-01 07:33N 49°20' E 008°28'2 0.1
2015-Aug-31 11:21N 49°23' E 008°30'6 7.5
2015-Aug-31 10:33N 49°17' E 008°28'10 9.7
2015-Aug-31 09:33N 49°08' E 008°22'1110.5
2015-Aug-31 08:32N 48°58' E 008°15'9 8.5
2015-Aug-31 07:32N 48°52' E 008°07'0 0.0
2015-Aug-31 06:32N 48°52' E 008°07'0 0.0
2015-Aug-31 04:18N 48°52' E 008°07'0 0.0
2015-Aug-31 03:28N 48°52' E 008°07'0 0.0
2015-Aug-31 01:21N 48°52' E 008°07'  
2015-Aug-28 09:30N 48°46' E 007°59'5 5.3
2015-Aug-28 08:33N 48°41' E 007°56'0 0.0
2015-Aug-28 07:33N 48°41' E 007°56'0 0.0
2015-Aug-28 06:33N 48°41' E 007°56'0 0.0
2015-Aug-28 04:20N 48°41' E 007°56'0 0.0
2015-Aug-28 03:33N 48°41' E 007°56'0 0.0
2015-Aug-28 02:33N 48°41' E 007°56'0 0.0
2015-Aug-28 01:33N 48°41' E 007°56'0 0.0
2015-Aug-28 00:33N 48°41' E 007°56'0 0.0
2015-Aug-27 23:33N 48°41' E 007°56'0 0.0
2015-Aug-27 22:33N 48°41' E 007°56'0 0.0
2015-Aug-27 21:33N 48°41' E 007°56'0 0.0
2015-Aug-27 20:33N 48°41' E 007°56'0 0.0
2015-Aug-27 19:33N 48°41' E 007°56'0 0.0
2015-Aug-27 18:33N 48°41' E 007°56'0 0.0
2015-Aug-27 17:33N 48°41' E 007°56'0 0.5
2015-Aug-27 16:33N 48°42' E 007°55'  
2015-Aug-24 18:12N 48°41' E 007°55'4 6.4
2015-Aug-24 17:33N 48°45' E 007°58'17 4.2
2015-Aug-24 13:27N 48°58' E 008°15'3 3.8
2015-Aug-24 12:33N 49°01' E 008°18'4 4.1
2015-Aug-24 11:33N 49°05' E 008°20'4 4.2
2015-Aug-24 10:33N 49°09' E 008°22'4 4.2
2015-Aug-24 09:33N 49°13' E 008°23'4 4.3
2015-Aug-24 08:33N 49°16' E 008°27'3 3.3
2015-Aug-24 07:33N 49°20' E 008°27'107 2.7
2015-Aug-22 15:32N 50°52' E 007°01'3 2.9
2015-Aug-22 14:29N 50°54' E 006°59'  
Track history (hours):
 
Tides and Currents Weather Stations Pressure Air Temp Water Temp Dewpoint Dewpoint Depression Visibility Wind Speed Wind Dir Waves Ship Positions

Audrey

Last reported at 2015-Sep-01 14:23 UTC. Time now 2015-Sep-02 04:24 UTC.
Position N 48°58' E 008°14'.

Length 85 m; draft 1.9 m.

Type: Other ship. MMSI: 244660106.

Date/timePositionNaut miles runAvg speedWind from/ knotsBaromVisibWave heightAir tempDewpointWater temp
2015-Sep-01 14:23N 48°58' E 008°14'3 3.8
2015-Sep-01 13:33N 48°60' E 008°17'4 4.0
2015-Sep-01 12:33N 49°04' E 008°19'4 3.9
2015-Sep-01 11:33N 49°07' E 008°22'4 3.8
2015-Sep-01 10:33N 49°11' E 008°23'4 3.8
2015-Sep-01 09:33N 49°15' E 008°24'4 4.2
2015-Sep-01 08:33N 49°17' E 008°29'3 3.3
2015-Sep-01 07:33N 49°20' E 008°28'2 0.1
2015-Aug-31 11:21N 49°23' E 008°30'6 7.5
2015-Aug-31 10:33N 49°17' E 008°28'10 9.7
2015-Aug-31 09:33N 49°08' E 008°22'1110.5
2015-Aug-31 08:32N 48°58' E 008°15'9 8.5
2015-Aug-31 07:32N 48°52' E 008°07'0 0.0
2015-Aug-31 06:32N 48°52' E 008°07'0 0.0
2015-Aug-31 04:18N 48°52' E 008°07'0 0.0
2015-Aug-31 03:28N 48°52' E 008°07'0 0.0
2015-Aug-31 01:21N 48°52' E 008°07'  
2015-Aug-28 09:30N 48°46' E 007°59'5 5.3
2015-Aug-28 08:33N 48°41' E 007°56'0 0.0
2015-Aug-28 07:33N 48°41' E 007°56'0 0.0
2015-Aug-28 06:33N 48°41' E 007°56'0 0.0
2015-Aug-28 04:20N 48°41' E 007°56'0 0.0
2015-Aug-28 03:33N 48°41' E 007°56'0 0.0
2015-Aug-28 02:33N 48°41' E 007°56'0 0.0
2015-Aug-28 01:33N 48°41' E 007°56'0 0.0
2015-Aug-28 00:33N 48°41' E 007°56'0 0.0
2015-Aug-27 23:33N 48°41' E 007°56'0 0.0
2015-Aug-27 22:33N 48°41' E 007°56'0 0.0
2015-Aug-27 21:33N 48°41' E 007°56'0 0.0
2015-Aug-27 20:33N 48°41' E 007°56'0 0.0
2015-Aug-27 19:33N 48°41' E 007°56'0 0.0
2015-Aug-27 18:33N 48°41' E 007°56'0 0.0
2015-Aug-27 17:33N 48°41' E 007°56'0 0.5
2015-Aug-27 16:33N 48°42' E 007°55'  
2015-Aug-24 18:12N 48°41' E 007°55'4 6.4
2015-Aug-24 17:33N 48°45' E 007°58'17 4.2
2015-Aug-24 13:27N 48°58' E 008°15'3 3.8
2015-Aug-24 12:33N 49°01' E 008°18'4 4.1
2015-Aug-24 11:33N 49°05' E 008°20'4 4.2
2015-Aug-24 10:33N 49°09' E 008°22'4 4.2
2015-Aug-24 09:33N 49°13' E 008°23'4 4.3
2015-Aug-24 08:33N 49°16' E 008°27'3 3.3
2015-Aug-24 07:33N 49°20' E 008°27'107 2.7
2015-Aug-22 15:32N 50°52' E 007°01'3 2.9
2015-Aug-22 14:29N 50°54' E 006°59'  

Dump ship's entire track history